createdAt,value
2022-11-21T00:00:45.663Z,4.46
2022-11-21T00:01:45.796Z,4.44
2022-11-21T00:02:45.650Z,4.44
2022-11-21T00:03:45.625Z,4.43
2022-11-21T00:04:45.650Z,4.43
2022-11-21T00:05:45.644Z,4.42
2022-11-21T00:06:45.679Z,4.39
2022-11-21T00:07:45.580Z,4.40
2022-11-21T00:08:45.574Z,4.40
2022-11-21T00:09:45.556Z,4.40
2022-11-21T00:10:45.528Z,4.39
2022-11-21T00:11:45.520Z,4.37
2022-11-21T00:12:45.502Z,4.39
2022-11-21T00:13:45.494Z,4.39
2022-11-21T00:14:45.508Z,4.39
2022-11-21T00:15:45.530Z,4.40
2022-11-21T00:16:45.575Z,4.40
2022-11-21T00:17:45.441Z,4.40
2022-11-21T00:18:45.476Z,4.43
2022-11-21T00:19:45.461Z,4.43
2022-11-21T00:20:45.429Z,4.44
2022-11-21T00:21:45.476Z,4.47
2022-11-21T00:22:45.472Z,4.51
2022-11-21T00:23:45.410Z,4.50
2022-11-21T00:24:45.351Z,4.52
2022-11-21T00:25:45.404Z,4.52
2022-11-21T00:26:45.400Z,4.54
2022-11-21T00:27:45.330Z,4.55
2022-11-21T00:28:45.358Z,4.55
2022-11-21T00:29:45.281Z,4.55
2022-11-21T00:30:45.332Z,4.55
2022-11-21T00:31:45.331Z,4.55
2022-11-21T00:32:45.348Z,4.57
2022-11-21T00:33:45.232Z,4.57
2022-11-21T00:34:45.254Z,4.55
2022-11-21T00:35:45.266Z,4.54
2022-11-21T00:36:45.267Z,4.55
2022-11-21T00:37:45.291Z,4.54
2022-11-21T00:38:45.232Z,4.55
2022-11-21T00:39:45.161Z,4.55
2022-11-21T00:40:45.152Z,4.57
2022-11-21T00:41:45.203Z,4.59
2022-11-21T00:42:45.212Z,4.61
2022-11-21T00:43:45.170Z,4.62
2022-11-21T00:44:45.145Z,4.64
2022-11-21T00:45:45.143Z,4.64
2022-11-21T00:46:45.145Z,4.65
2022-11-21T00:47:45.133Z,4.67
2022-11-21T00:48:45.181Z,4.69
2022-11-21T00:49:45.064Z,4.72
2022-11-21T00:50:45.053Z,4.73
2022-11-21T00:51:45.002Z,4.73
2022-11-21T00:52:45.002Z,4.77
2022-11-21T00:53:45.072Z,4.77
2022-11-21T00:54:45.026Z,4.80
2022-11-21T00:55:44.982Z,4.83
2022-11-21T00:56:44.992Z,4.83
2022-11-21T00:57:44.921Z,4.86
2022-11-21T00:58:45.037Z,4.88
2022-11-21T00:59:44.943Z,4.91
2022-11-21T01:00:44.953Z,4.91
2022-11-21T01:01:44.892Z,4.89
2022-11-21T01:02:44.864Z,4.91
2022-11-21T01:03:44.952Z,4.91
2022-11-21T01:04:44.860Z,4.91
2022-11-21T01:05:44.854Z,4.94
2022-11-21T01:06:44.828Z,4.95
2022-11-21T01:07:45.883Z,4.96
2022-11-21T01:08:44.829Z,4.98
2022-11-21T01:09:53.514Z,4.99
2022-11-21T01:11:54.982Z,5.04
2022-11-21T01:13:02.488Z,5.02
2022-11-21T01:14:02.481Z,5.05
2022-11-21T01:15:04.668Z,5.05
2022-11-21T01:16:02.466Z,5.07
2022-11-21T01:17:03.454Z,5.07
2022-11-21T01:18:02.418Z,5.07
2022-11-21T01:19:02.412Z,5.09
2022-11-21T01:20:12.105Z,5.09
2022-11-21T01:21:02.381Z,5.10
2022-11-21T01:24:13.434Z,5.17
2022-11-21T01:25:20.887Z,5.16
2022-11-21T01:26:20.916Z,5.14
2022-11-21T01:27:14.391Z,5.16
2022-11-21T01:28:20.859Z,5.14
2022-11-21T01:29:22.056Z,5.19
2022-11-21T01:31:16.813Z,5.23
2022-11-21T01:32:25.304Z,5.22
2022-11-21T01:33:16.778Z,5.23
2022-11-21T01:34:16.783Z,5.23
2022-11-21T01:35:16.834Z,5.22
2022-11-21T01:36:16.802Z,5.25
2022-11-21T01:37:16.826Z,5.23
2022-11-21T01:38:16.824Z,5.25
2022-11-21T01:39:16.729Z,5.27
2022-11-21T01:40:16.791Z,5.28
2022-11-21T01:41:16.735Z,5.27
2022-11-21T01:42:16.701Z,5.28
2022-11-21T01:43:16.775Z,5.28
2022-11-21T01:44:17.693Z,5.30
2022-11-21T01:45:16.744Z,5.28
2022-11-21T01:46:16.664Z,5.34
2022-11-21T01:47:16.638Z,5.32
2022-11-21T01:48:16.675Z,5.32
2022-11-21T01:49:17.616Z,5.32
2022-11-21T01:50:16.623Z,5.32
2022-11-21T01:51:16.611Z,5.31
2022-11-21T01:52:16.546Z,5.34
2022-11-21T01:53:16.615Z,5.31
2022-11-21T01:54:16.626Z,5.31
2022-11-21T01:55:16.524Z,5.31
2022-11-21T01:56:16.536Z,5.31
2022-11-21T01:57:16.465Z,5.31
2022-11-21T01:58:16.544Z,5.31
2022-11-21T01:59:16.559Z,5.30
2022-11-21T02:00:16.509Z,5.28
2022-11-21T02:01:16.492Z,5.28
2022-11-21T02:02:16.439Z,5.28
2022-11-21T02:03:16.398Z,5.30
2022-11-21T02:04:16.373Z,5.30
2022-11-21T02:05:16.447Z,5.31
2022-11-21T02:06:16.349Z,5.28
2022-11-21T02:07:16.386Z,5.30
2022-11-21T02:08:16.406Z,5.28
2022-11-21T02:09:16.347Z,5.28
2022-11-21T02:10:16.314Z,5.27
2022-11-21T02:11:38.377Z,5.27
2022-11-21T02:12:16.278Z,5.25
2022-11-21T02:13:16.275Z,5.25
2022-11-21T02:14:16.308Z,5.27
2022-11-21T02:15:16.260Z,5.25
2022-11-21T02:16:16.271Z,5.27
2022-11-21T02:17:37.256Z,5.27
2022-11-21T02:18:16.188Z,5.27
2022-11-21T02:19:16.293Z,5.27
2022-11-21T02:20:16.207Z,5.27
2022-11-21T02:21:16.168Z,5.27
2022-11-21T02:22:16.195Z,5.27
2022-11-21T02:23:16.140Z,5.27
2022-11-21T02:24:16.227Z,5.27
2022-11-21T02:25:16.119Z,5.25
2022-11-21T02:26:16.087Z,5.27
2022-11-21T02:27:16.127Z,5.27
2022-11-21T02:28:16.067Z,5.25
2022-11-21T02:29:16.152Z,5.25
2022-11-21T02:30:16.091Z,5.23
2022-11-21T02:31:16.057Z,5.22
2022-11-21T02:32:16.068Z,5.22
2022-11-21T02:33:16.009Z,5.22
2022-11-21T02:34:16.067Z,5.20
2022-11-21T02:35:16.034Z,5.20
2022-11-21T02:36:15.996Z,5.20
2022-11-21T02:37:16.006Z,5.20
2022-11-21T02:38:16.024Z,5.20
2022-11-21T02:39:15.944Z,5.19
2022-11-21T02:40:15.947Z,5.19
2022-11-21T02:41:15.920Z,5.19
2022-11-21T02:42:15.940Z,5.17
2022-11-21T02:43:15.883Z,5.17
2022-11-21T02:44:15.859Z,5.19
2022-11-21T02:45:15.891Z,5.17
2022-11-21T02:46:15.852Z,5.16
2022-11-21T02:47:15.889Z,5.17
2022-11-21T02:48:15.797Z,5.14
2022-11-21T02:49:15.797Z,5.14
2022-11-21T02:50:15.819Z,5.14
2022-11-21T02:51:15.779Z,5.12
2022-11-21T02:52:15.799Z,5.10
2022-11-21T02:53:15.807Z,5.12
2022-11-21T02:54:15.727Z,5.09
2022-11-21T02:55:18.927Z,5.07
2022-11-21T02:56:15.719Z,5.07
2022-11-21T02:57:15.719Z,5.05
2022-11-21T02:58:15.680Z,5.07
2022-11-21T02:59:15.677Z,5.02
2022-11-21T03:00:15.780Z,5.02
2022-11-21T03:01:15.711Z,5.02
2022-11-21T03:02:15.629Z,5.02
2022-11-21T03:03:15.670Z,5.02
2022-11-21T03:04:15.669Z,5.02
2022-11-21T03:05:15.619Z,5.02
2022-11-21T03:06:15.592Z,5.01
2022-11-21T03:07:15.626Z,5.01
2022-11-21T03:08:15.591Z,5.01
2022-11-21T03:09:15.605Z,5.02
2022-11-21T03:10:15.611Z,5.04
2022-11-21T03:11:15.618Z,5.02
2022-11-21T03:12:15.519Z,5.02
2022-11-21T03:13:15.518Z,5.02
2022-11-21T03:14:15.536Z,5.04
2022-11-21T03:15:15.474Z,5.05
2022-11-21T03:16:15.449Z,5.05
2022-11-21T03:17:15.470Z,5.05
2022-11-21T03:18:15.459Z,5.04
2022-11-21T03:19:15.459Z,5.04
2022-11-21T03:20:15.409Z,5.05
2022-11-21T03:21:15.489Z,5.04
2022-11-21T03:22:15.489Z,5.05
2022-11-21T03:23:15.410Z,5.04
2022-11-21T03:24:15.410Z,5.02
2022-11-21T03:25:15.359Z,5.02
2022-11-21T03:26:15.420Z,5.02
2022-11-21T03:27:15.344Z,5.04
2022-11-21T03:28:15.289Z,5.02
2022-11-21T03:29:16.360Z,4.99
2022-11-21T03:30:15.387Z,4.95
2022-11-21T03:31:15.361Z,4.95
2022-11-21T03:32:15.360Z,4.95
2022-11-21T03:33:15.250Z,4.95
2022-11-21T03:34:15.273Z,4.94
2022-11-21T03:35:15.225Z,4.92
2022-11-21T03:36:16.210Z,4.92
2022-11-21T03:37:15.291Z,4.94
2022-11-21T03:38:15.200Z,4.94
2022-11-21T03:39:15.201Z,4.92
2022-11-21T03:40:15.157Z,4.92
2022-11-21T03:41:15.122Z,4.94
2022-11-21T03:42:15.121Z,4.94
2022-11-21T03:43:15.133Z,4.94
2022-11-21T03:44:15.122Z,4.94
2022-11-21T03:45:15.149Z,4.95
2022-11-21T03:46:15.071Z,4.95
2022-11-21T03:47:16.085Z,4.95
2022-11-21T03:48:15.072Z,4.96
2022-11-21T03:49:15.022Z,4.96
2022-11-21T04:03:17.090Z,4.99
2022-11-21T04:04:17.103Z,4.99
2022-11-21T04:05:17.052Z,4.99
2022-11-21T04:06:17.060Z,5.02
2022-11-21T04:07:17.072Z,5.02
2022-11-21T04:08:40.090Z,5.04
2022-11-21T04:09:17.020Z,5.05
2022-11-21T04:10:17.074Z,5.04
2022-11-21T04:11:17.002Z,5.04
2022-11-21T04:12:16.961Z,5.04
2022-11-21T04:13:16.981Z,5.04
2022-11-21T04:14:16.928Z,5.05
2022-11-21T04:15:17.012Z,5.07
2022-11-21T04:16:17.071Z,5.05
2022-11-21T04:17:16.991Z,5.09
2022-11-21T04:18:16.881Z,5.07
2022-11-21T04:19:38.000Z,5.09
2022-11-21T04:20:16.875Z,5.09
2022-11-21T04:21:16.941Z,5.10
2022-11-21T04:22:16.933Z,5.12
2022-11-21T04:23:16.813Z,5.10
2022-11-21T04:24:16.851Z,5.10
2022-11-21T04:25:17.877Z,5.12
2022-11-21T04:26:16.883Z,5.12
2022-11-21T04:27:16.871Z,5.12
2022-11-21T04:28:16.756Z,5.13
2022-11-21T04:29:16.773Z,5.14
2022-11-21T04:30:16.772Z,5.16
2022-11-21T04:31:17.738Z,5.16
2022-11-21T04:32:16.790Z,5.17
2022-11-21T04:33:16.684Z,5.17
2022-11-21T04:34:16.718Z,5.17
2022-11-21T04:35:16.709Z,5.17
2022-11-21T04:36:19.922Z,5.17
2022-11-21T04:37:16.815Z,5.19
2022-11-21T04:38:16.724Z,5.19
2022-11-21T04:39:16.640Z,5.22
2022-11-21T04:40:16.665Z,5.20
2022-11-21T04:41:16.633Z,5.22
2022-11-21T04:42:16.603Z,5.19
2022-11-21T04:43:16.553Z,5.19
2022-11-21T04:44:16.563Z,5.19
2022-11-21T04:45:16.522Z,5.17
2022-11-21T04:46:16.562Z,5.17
2022-11-21T04:47:16.521Z,5.17
2022-11-21T04:48:16.492Z,5.14
2022-11-21T04:49:18.493Z,5.14
2022-11-21T04:50:16.462Z,5.14
2022-11-21T04:51:16.499Z,5.13
2022-11-21T04:52:16.442Z,5.13
2022-11-21T04:53:16.423Z,5.14
2022-11-21T04:54:16.439Z,5.16
2022-11-21T04:55:16.404Z,5.17
2022-11-21T04:56:16.556Z,5.19
2022-11-21T04:57:16.438Z,5.19
2022-11-21T04:58:16.363Z,5.17
2022-11-21T04:59:16.386Z,5.19
2022-11-21T05:00:20.860Z,5.19
2022-11-21T05:01:17.397Z,5.19
2022-11-21T05:02:16.317Z,5.19
2022-11-21T05:03:16.294Z,5.20
2022-11-21T05:04:16.291Z,5.19
2022-11-21T05:05:16.276Z,5.17
2022-11-21T05:06:16.301Z,5.20
2022-11-21T05:07:16.280Z,5.20
2022-11-21T05:08:16.235Z,5.20
2022-11-21T05:09:16.225Z,5.20
2022-11-21T05:10:17.234Z,5.25
2022-11-21T05:11:16.212Z,5.23
2022-11-21T05:12:16.196Z,5.23
2022-11-21T05:13:16.164Z,5.25
2022-11-21T05:14:16.166Z,5.25
2022-11-21T05:15:20.351Z,5.25
2022-11-21T05:16:17.155Z,5.27
2022-11-21T05:17:16.117Z,5.27
2022-11-21T05:18:16.116Z,5.28
2022-11-21T05:19:16.129Z,5.27
2022-11-21T05:20:17.101Z,5.27
2022-11-21T05:21:16.096Z,5.25
2022-11-21T05:22:16.065Z,5.25
2022-11-21T05:23:16.055Z,5.22
2022-11-21T05:24:16.039Z,5.22
2022-11-21T05:25:16.015Z,5.20
2022-11-21T05:26:16.037Z,5.20
2022-11-21T05:27:16.012Z,5.20
2022-11-21T05:28:16.005Z,5.20
2022-11-21T05:29:16.000Z,5.19
2022-11-21T05:30:15.965Z,5.17
2022-11-21T05:31:15.948Z,5.16
2022-11-21T05:32:16.006Z,5.14
2022-11-21T05:33:15.917Z,5.13
2022-11-21T05:34:16.900Z,5.10
2022-11-21T05:35:15.896Z,5.10
2022-11-21T05:36:15.917Z,5.12
2022-11-21T05:37:15.854Z,5.14
2022-11-21T05:38:15.855Z,5.16
2022-11-21T05:39:15.843Z,5.16
2022-11-21T05:40:15.834Z,5.16
2022-11-21T05:41:15.815Z,5.19
2022-11-21T05:42:15.795Z,5.20
2022-11-21T05:43:15.780Z,5.22
2022-11-21T05:44:15.845Z,5.20
2022-11-21T05:45:15.766Z,5.20
2022-11-21T05:46:15.757Z,5.19
2022-11-21T05:47:16.717Z,5.19
2022-11-21T05:48:15.742Z,5.17
2022-11-21T05:49:15.700Z,5.14
2022-11-21T05:50:15.714Z,5.13
2022-11-21T05:51:15.686Z,5.10
2022-11-21T05:52:15.685Z,5.09
2022-11-21T05:53:15.676Z,5.05
2022-11-21T05:54:15.645Z,4.99
2022-11-21T05:55:15.626Z,4.99
2022-11-21T05:56:15.655Z,4.95
2022-11-21T05:57:15.596Z,4.89
2022-11-21T05:58:15.598Z,4.86
2022-11-21T05:59:15.578Z,4.83
2022-11-21T06:00:15.567Z,4.83
2022-11-21T06:01:15.576Z,4.79
2022-11-21T06:02:16.546Z,4.79
2022-11-21T06:03:15.550Z,4.79
2022-11-21T06:04:15.507Z,4.80
2022-11-21T06:05:15.498Z,4.84
2022-11-21T06:06:16.383Z,4.83
2022-11-21T06:07:15.638Z,4.84
2022-11-21T06:08:15.515Z,4.80
2022-11-21T06:09:15.468Z,4.79
2022-11-21T06:10:15.437Z,4.80
2022-11-21T06:11:15.446Z,4.79
2022-11-21T06:12:16.437Z,4.77
2022-11-21T06:13:15.396Z,4.76
2022-11-21T06:14:15.397Z,4.75
2022-11-21T06:15:15.380Z,4.73
2022-11-21T06:16:15.379Z,4.75
2022-11-21T06:17:15.360Z,4.76
2022-11-21T06:18:15.339Z,4.75
2022-11-21T06:19:15.318Z,4.75
2022-11-21T06:20:15.316Z,4.69
2022-11-21T06:21:16.323Z,4.64
2022-11-21T06:22:16.330Z,4.62
2022-11-21T06:23:15.277Z,4.61
2022-11-21T06:24:20.798Z,4.59
2022-11-21T06:25:16.249Z,4.58
2022-11-21T06:26:15.238Z,4.57
2022-11-21T06:27:15.237Z,4.57
2022-11-21T06:28:15.200Z,4.58
2022-11-21T06:29:15.178Z,4.58
2022-11-21T06:30:20.686Z,4.59
2022-11-21T06:31:16.169Z,4.58
2022-11-21T06:32:16.165Z,4.58
2022-11-21T06:33:15.132Z,4.58
2022-11-21T06:34:15.129Z,4.58
2022-11-21T06:35:15.103Z,4.57
2022-11-21T06:36:15.099Z,4.57
2022-11-21T06:37:16.169Z,4.55
2022-11-21T06:38:15.071Z,4.57
2022-11-21T06:39:15.071Z,4.58
2022-11-21T06:40:15.104Z,4.57
2022-11-21T06:41:15.051Z,4.54
2022-11-21T06:42:15.038Z,4.54
2022-11-21T06:43:15.029Z,4.55
2022-11-21T06:44:15.018Z,4.52
2022-11-21T06:45:14.972Z,4.54
2022-11-21T06:46:14.990Z,4.57
2022-11-21T06:47:14.987Z,4.57
2022-11-21T06:48:14.949Z,4.58
2022-11-21T06:49:14.939Z,4.59
2022-11-21T06:50:14.911Z,4.58
2022-11-21T06:51:14.919Z,4.61
2022-11-21T06:52:14.926Z,4.61
2022-11-21T06:53:14.881Z,4.59
2022-11-21T06:54:16.942Z,4.61
2022-11-21T06:55:14.849Z,4.61
2022-11-21T06:56:14.861Z,4.61
2022-11-21T06:57:14.836Z,4.64
2022-11-21T06:58:14.833Z,4.64
2022-11-21T06:59:14.928Z,4.64
2022-11-21T07:00:14.790Z,4.65
2022-11-21T07:01:14.818Z,4.67
2022-11-21T07:02:14.782Z,4.65
2022-11-21T07:03:14.759Z,4.67
2022-11-21T07:04:14.729Z,4.67
2022-11-21T07:05:14.750Z,4.69
2022-11-21T07:06:14.745Z,4.69
2022-11-21T07:07:14.762Z,4.69
2022-11-21T07:08:15.680Z,4.72
2022-11-21T07:10:15.650Z,4.72
2022-11-21T07:11:30.092Z,4.72
2022-11-21T07:12:16.633Z,4.73
2022-11-21T07:13:14.630Z,4.75
2022-11-21T07:14:14.625Z,4.75
2022-11-21T07:15:14.602Z,4.76
2022-11-21T07:16:14.594Z,4.75
2022-11-21T07:17:14.575Z,4.77
2022-11-21T07:18:14.583Z,4.76
2022-11-21T07:19:14.532Z,4.73
2022-11-21T07:20:14.521Z,4.73
2022-11-21T07:21:14.521Z,4.73
2022-11-21T07:22:14.510Z,4.73
2022-11-21T07:23:14.483Z,4.72
2022-11-21T07:24:14.463Z,4.70
2022-11-21T07:25:14.471Z,4.70
2022-11-21T07:26:14.461Z,4.70
2022-11-21T07:27:14.442Z,4.72
2022-11-21T07:28:14.439Z,4.73
2022-11-21T07:29:14.433Z,4.73
2022-11-21T07:30:14.412Z,4.76
2022-11-21T07:31:14.566Z,4.77
2022-11-21T07:32:14.372Z,4.79
2022-11-21T07:33:15.362Z,4.83
2022-11-21T07:34:14.343Z,4.80
2022-11-21T07:35:14.351Z,4.83
2022-11-21T07:36:14.355Z,4.80
2022-11-21T07:37:14.327Z,4.83
2022-11-21T07:38:15.282Z,4.86
2022-11-21T07:39:14.261Z,4.84
2022-11-21T07:40:14.271Z,4.88
2022-11-21T07:41:14.249Z,4.88
2022-11-21T07:42:14.243Z,4.91
2022-11-21T07:43:14.221Z,4.92
2022-11-21T07:44:14.226Z,4.94
2022-11-21T07:45:14.212Z,4.94
2022-11-21T07:46:14.192Z,4.94
2022-11-21T07:47:14.212Z,4.95
2022-11-21T07:48:14.175Z,4.96
2022-11-21T07:49:14.167Z,4.98
2022-11-21T07:50:14.151Z,4.96
2022-11-21T07:51:14.148Z,4.96
2022-11-21T07:52:14.135Z,4.91
2022-11-21T07:53:14.101Z,4.91
2022-11-21T07:54:14.114Z,4.89
2022-11-21T07:55:14.074Z,4.91
2022-11-21T07:56:14.062Z,4.89
2022-11-21T07:57:14.073Z,4.91
2022-11-21T07:58:14.040Z,4.95
2022-11-21T07:59:15.024Z,4.94
2022-11-21T08:00:14.033Z,4.98
2022-11-21T08:01:14.036Z,5.01
2022-11-21T08:02:14.096Z,5.05
2022-11-21T08:03:13.973Z,5.05
2022-11-21T08:04:14.026Z,5.05
2022-11-21T08:05:13.964Z,5.09
2022-11-21T08:06:13.948Z,5.10
2022-11-21T08:07:13.996Z,5.13
2022-11-21T08:08:13.916Z,5.12
2022-11-21T08:09:14.911Z,5.13
2022-11-21T08:10:13.874Z,5.12
2022-11-21T08:11:13.894Z,5.13
2022-11-21T08:12:13.856Z,5.14
2022-11-21T08:13:13.854Z,5.14
2022-11-21T08:14:13.822Z,5.19
2022-11-21T08:15:13.826Z,5.23
2022-11-21T08:16:13.817Z,5.25
2022-11-21T08:17:13.826Z,5.28
2022-11-21T08:18:13.797Z,5.30
2022-11-21T08:19:14.754Z,5.34
2022-11-21T08:20:13.768Z,5.37
2022-11-21T08:21:19.527Z,5.38
2022-11-21T08:22:14.746Z,5.41
2022-11-21T08:23:13.736Z,5.43
2022-11-21T08:24:14.699Z,5.43
2022-11-21T08:25:13.683Z,5.45
2022-11-21T08:26:13.730Z,5.49
2022-11-21T08:27:13.678Z,5.52
2022-11-21T08:28:14.721Z,5.55
2022-11-21T08:29:14.644Z,5.56
2022-11-21T08:30:13.633Z,5.60
2022-11-21T08:31:13.637Z,5.59
2022-11-21T08:32:13.608Z,5.59
2022-11-21T08:33:13.595Z,5.59
2022-11-21T08:34:14.784Z,5.57
2022-11-21T08:35:14.588Z,5.55
2022-11-21T08:36:13.558Z,5.55
2022-11-21T08:37:13.546Z,5.57
2022-11-21T08:38:13.536Z,5.63
2022-11-21T08:39:13.518Z,5.74
2022-11-21T08:40:13.496Z,5.82
2022-11-21T08:41:17.630Z,5.95
2022-11-21T08:42:13.477Z,6.07
2022-11-21T08:43:13.495Z,6.22
2022-11-21T08:44:14.380Z,6.40
2022-11-21T08:45:13.460Z,6.51
2022-11-21T08:46:13.440Z,6.65
2022-11-21T08:47:13.430Z,6.69
2022-11-21T08:48:13.396Z,6.68
2022-11-21T08:49:13.393Z,6.77
2022-11-21T08:50:13.377Z,6.84
2022-11-21T08:51:13.367Z,6.83
2022-11-21T08:52:13.358Z,6.81
2022-11-21T08:53:13.356Z,6.80
2022-11-21T08:54:13.303Z,6.87
2022-11-21T08:55:13.311Z,6.90
2022-11-21T08:56:13.288Z,7.02
2022-11-21T08:57:13.303Z,7.08
2022-11-21T08:58:13.302Z,7.20
2022-11-21T08:59:13.256Z,7.29
2022-11-21T09:00:13.241Z,7.23
2022-11-21T09:01:13.258Z,7.34
2022-11-21T09:02:13.235Z,7.37
2022-11-21T09:03:14.966Z,7.50
2022-11-21T09:04:13.189Z,7.71
2022-11-21T09:05:13.167Z,7.82
2022-11-21T09:06:13.171Z,7.63
2022-11-21T09:07:13.208Z,7.67
2022-11-21T09:08:13.115Z,7.75
2022-11-21T09:09:13.138Z,7.75
2022-11-21T09:10:13.123Z,7.72
2022-11-21T09:11:13.088Z,7.55
2022-11-21T09:12:13.103Z,7.55
2022-11-21T09:13:13.067Z,7.81
2022-11-21T09:14:13.079Z,8.04
2022-11-21T09:15:14.048Z,8.21
2022-11-21T09:16:16.356Z,8.44
2022-11-21T09:17:14.009Z,8.47
2022-11-21T09:18:12.999Z,8.68
2022-11-21T09:19:12.989Z,8.51
2022-11-21T09:20:14.039Z,8.30
2022-11-21T09:21:12.958Z,8.26
2022-11-21T09:22:12.960Z,8.12
2022-11-21T09:23:12.945Z,7.87
2022-11-21T09:24:13.941Z,7.69
2022-11-21T09:25:12.942Z,7.59
2022-11-21T09:26:13.891Z,7.53
2022-11-21T09:27:12.915Z,7.66
2022-11-21T09:28:12.903Z,7.78
2022-11-21T09:29:12.880Z,7.87
2022-11-21T09:30:13.865Z,8.33
2022-11-21T09:31:12.850Z,8.83
2022-11-21T09:32:12.917Z,8.47
2022-11-21T09:33:12.865Z,8.62
2022-11-21T09:34:12.819Z,8.65
2022-11-21T09:35:12.802Z,8.40
2022-11-21T09:36:12.772Z,8.18
2022-11-21T09:37:12.775Z,7.99
2022-11-21T09:38:12.775Z,7.89
2022-11-21T09:39:12.761Z,7.96
2022-11-21T09:40:12.735Z,7.82
2022-11-21T09:41:12.709Z,7.75
2022-11-21T09:42:12.713Z,7.74
2022-11-21T09:43:12.704Z,7.63
2022-11-21T09:44:12.680Z,7.53
2022-11-21T09:45:12.651Z,7.49
2022-11-21T09:46:13.641Z,7.47
2022-11-21T09:47:12.631Z,7.35
2022-11-21T10:03:43.211Z,7.38
2022-11-21T10:04:44.198Z,7.37
2022-11-21T10:05:43.174Z,7.35
2022-11-21T10:06:43.181Z,7.37
2022-11-21T10:07:43.247Z,7.37
2022-11-21T10:08:43.156Z,7.35
2022-11-21T10:09:44.192Z,7.31
2022-11-21T10:10:43.100Z,7.31
2022-11-21T10:11:43.112Z,7.26
2022-11-21T10:12:43.082Z,7.22
2022-11-21T10:13:43.062Z,7.17
2022-11-21T10:14:43.158Z,7.17
2022-11-21T10:15:43.045Z,7.19
2022-11-21T10:16:43.023Z,7.20
2022-11-21T10:17:43.011Z,7.23
2022-11-21T10:18:43.086Z,7.23
2022-11-21T10:19:42.990Z,7.20
2022-11-21T10:20:42.982Z,7.20
2022-11-21T10:21:42.962Z,7.20
2022-11-21T10:22:42.959Z,7.22
2022-11-21T10:23:42.953Z,7.26
2022-11-21T10:24:42.962Z,7.24
2022-11-21T10:25:42.905Z,7.24
2022-11-21T10:26:42.895Z,7.27
2022-11-21T10:27:42.892Z,7.32
2022-11-21T10:28:42.873Z,7.35
2022-11-21T10:29:43.897Z,7.42
2022-11-21T10:30:42.870Z,7.41
2022-11-21T10:31:42.848Z,7.40
2022-11-21T10:32:42.864Z,7.38
2022-11-21T10:33:42.814Z,7.42
2022-11-21T10:34:42.794Z,7.44
2022-11-21T10:35:42.811Z,7.45
2022-11-21T10:36:42.773Z,7.44
2022-11-21T10:37:42.764Z,7.47
2022-11-21T10:38:42.742Z,7.55
2022-11-21T10:39:42.749Z,7.56
2022-11-21T10:40:42.735Z,7.56
2022-11-21T10:41:42.715Z,7.53
2022-11-21T10:42:42.714Z,7.56
2022-11-21T10:43:42.697Z,7.62
2022-11-21T10:44:42.667Z,7.60
2022-11-21T10:45:42.669Z,7.60
2022-11-21T10:46:42.654Z,7.63
2022-11-21T10:47:42.653Z,7.60
2022-11-21T10:48:42.625Z,7.60
2022-11-21T10:49:42.606Z,7.56
2022-11-21T10:50:42.604Z,7.56
2022-11-21T10:51:42.594Z,7.66
2022-11-21T10:52:42.583Z,7.77
2022-11-21T10:53:42.574Z,7.84
2022-11-21T10:54:42.545Z,7.78
2022-11-21T10:55:43.544Z,7.79
2022-11-21T10:56:43.513Z,7.74
2022-11-21T10:57:42.580Z,7.72
2022-11-21T10:58:42.558Z,7.71
2022-11-21T10:59:42.516Z,7.69
2022-11-21T11:00:42.481Z,7.63
2022-11-21T11:01:43.455Z,7.56
2022-11-21T11:02:42.532Z,7.52
2022-11-21T11:03:45.664Z,7.44
2022-11-21T11:04:49.095Z,7.45
2022-11-21T11:05:43.415Z,7.52
2022-11-21T11:06:42.495Z,7.55
2022-11-21T11:07:42.465Z,7.52
2022-11-21T11:08:42.359Z,7.44
2022-11-21T11:09:42.366Z,7.41
2022-11-21T11:10:42.335Z,7.40
2022-11-21T11:11:42.346Z,7.42
2022-11-21T11:12:42.359Z,7.42
2022-11-21T11:13:46.748Z,7.40
2022-11-21T11:14:43.315Z,7.38
2022-11-21T11:15:42.298Z,7.35
2022-11-21T11:16:42.280Z,7.40
2022-11-21T11:17:42.247Z,7.45
2022-11-21T11:18:42.237Z,7.55
2022-11-21T11:19:42.606Z,7.72
2022-11-21T11:20:42.207Z,8.25
2022-11-21T11:21:42.223Z,8.48
2022-11-21T11:22:42.217Z,8.42
2022-11-21T11:23:42.179Z,8.29
2022-11-21T11:24:42.159Z,8.25
2022-11-21T11:25:42.147Z,8.30
2022-11-21T11:26:42.247Z,8.68
2022-11-21T11:27:42.126Z,8.73
2022-11-21T11:28:42.151Z,8.48
2022-11-21T11:29:42.089Z,8.18
2022-11-21T11:30:42.085Z,7.87
2022-11-21T11:31:42.071Z,7.67
2022-11-21T11:32:42.061Z,7.52
2022-11-21T11:33:42.037Z,7.40
2022-11-21T11:34:42.075Z,7.29
2022-11-21T11:35:42.009Z,7.15
2022-11-21T11:36:42.011Z,7.07
2022-11-21T11:37:42.001Z,7.04
2022-11-21T11:38:41.992Z,7.04
2022-11-21T11:39:42.005Z,6.99
2022-11-21T11:40:41.950Z,6.94
2022-11-21T11:41:41.944Z,6.87
2022-11-21T11:42:41.971Z,6.86
2022-11-21T11:43:41.929Z,6.89
2022-11-21T11:44:41.900Z,6.90
2022-11-21T11:45:41.894Z,6.90
2022-11-21T11:46:41.875Z,6.89
2022-11-21T11:47:41.863Z,6.91
2022-11-21T11:49:03.760Z,6.97
2022-11-21T11:49:42.859Z,6.97
2022-11-21T11:50:41.859Z,7.01
2022-11-21T11:51:42.821Z,7.04
2022-11-21T11:52:41.838Z,7.07
2022-11-21T11:53:41.780Z,7.07
2022-11-21T11:54:41.788Z,6.98
2022-11-21T11:55:41.760Z,6.95
2022-11-21T11:56:41.820Z,6.95
2022-11-21T11:57:41.763Z,6.95
2022-11-21T11:58:41.751Z,6.98
2022-11-21T11:59:41.710Z,7.02
2022-11-21T12:00:41.700Z,7.07
2022-11-21T12:01:41.736Z,7.05
2022-11-21T12:02:41.745Z,7.08
2022-11-21T12:03:41.660Z,7.08
2022-11-21T12:04:41.649Z,7.13
2022-11-21T12:05:41.632Z,7.16
2022-11-21T12:07:41.300Z,7.16
2022-11-21T12:08:43.150Z,7.13
2022-11-21T12:09:41.648Z,7.16
2022-11-21T12:10:41.574Z,7.19
2022-11-21T12:11:41.578Z,7.17
2022-11-21T12:12:41.640Z,7.23
2022-11-21T12:13:42.539Z,7.38
2022-11-21T12:14:41.543Z,8.36
2022-11-21T12:15:41.542Z,9.02
2022-11-21T12:16:41.491Z,8.81
2022-11-21T12:17:41.541Z,8.66
2022-11-21T12:18:41.486Z,8.57
2022-11-21T12:19:41.464Z,8.44
2022-11-21T12:20:41.453Z,8.33
2022-11-21T12:21:41.434Z,8.14
2022-11-21T12:22:42.434Z,7.93
2022-11-21T12:23:41.413Z,7.82
2022-11-21T12:24:43.143Z,7.75
2022-11-21T12:25:41.375Z,7.75
2022-11-21T12:26:41.375Z,7.72
2022-11-21T12:27:44.038Z,7.58
2022-11-21T12:28:41.344Z,7.42
2022-11-21T12:29:41.313Z,7.41
2022-11-21T12:30:41.315Z,7.66
2022-11-21T12:31:41.329Z,7.63
2022-11-21T12:33:07.915Z,7.56
2022-11-21T12:33:42.355Z,7.56
2022-11-21T12:34:41.316Z,7.60
2022-11-21T12:35:41.256Z,7.59
2022-11-21T12:36:41.225Z,7.50
2022-11-21T12:37:43.233Z,7.42
2022-11-21T12:38:44.913Z,7.40
2022-11-21T12:39:41.203Z,7.40
2022-11-21T12:40:41.198Z,7.38
2022-11-21T12:41:41.168Z,7.35
2022-11-21T12:42:41.171Z,7.34
2022-11-21T12:43:41.155Z,7.34
2022-11-21T12:44:41.137Z,7.35
2022-11-21T12:45:41.158Z,7.37
2022-11-21T12:46:41.095Z,7.40
2022-11-21T12:47:42.082Z,7.38
2022-11-21T12:48:41.085Z,7.41
2022-11-21T12:49:41.102Z,7.41
2022-11-21T12:50:41.066Z,7.32
2022-11-21T12:51:41.036Z,7.32
2022-11-21T12:52:42.054Z,7.32
2022-11-21T12:53:41.028Z,7.35
2022-11-21T12:54:40.996Z,7.35
2022-11-21T12:55:41.029Z,7.32
2022-11-21T12:56:40.978Z,7.27
2022-11-21T12:57:40.968Z,7.32
2022-11-21T12:58:41.034Z,7.29
2022-11-21T12:59:40.945Z,7.26
2022-11-21T13:00:40.909Z,7.26
2022-11-21T13:01:40.929Z,7.26
2022-11-21T13:02:40.916Z,7.23
2022-11-21T13:03:40.880Z,7.26
2022-11-21T13:04:40.868Z,7.31
2022-11-21T13:05:40.850Z,7.35
2022-11-21T13:06:40.830Z,7.60
2022-11-21T13:07:40.905Z,8.04
2022-11-21T13:08:40.831Z,8.60
2022-11-21T13:09:40.800Z,9.28
2022-11-21T13:10:40.768Z,9.71
2022-11-21T13:11:40.759Z,10.01
2022-11-21T13:12:40.804Z,10.19
2022-11-21T13:13:40.781Z,10.36
2022-11-21T13:14:40.729Z,10.25
2022-11-21T13:15:40.721Z,9.85
2022-11-21T13:16:40.712Z,9.68
2022-11-21T13:17:40.692Z,9.27
2022-11-21T13:18:40.705Z,8.94
2022-11-21T13:19:40.714Z,8.73
2022-11-21T13:20:40.642Z,8.44
2022-11-21T13:21:41.000Z,8.25
2022-11-21T13:22:40.639Z,7.99
2022-11-21T13:23:40.613Z,7.81
2022-11-21T13:24:40.623Z,7.67
2022-11-21T13:25:40.609Z,7.59
2022-11-21T13:26:40.581Z,7.49
2022-11-21T13:27:40.561Z,7.40
2022-11-21T13:28:40.556Z,7.37
2022-11-21T13:29:40.567Z,7.34
2022-11-21T13:30:40.521Z,7.34
2022-11-21T13:31:40.509Z,7.31
2022-11-21T13:32:40.501Z,7.32
2022-11-21T13:33:40.497Z,7.49
2022-11-21T13:34:40.509Z,7.69
2022-11-21T13:35:40.473Z,7.89
2022-11-21T13:36:40.463Z,8.10
2022-11-21T13:37:40.457Z,8.26
2022-11-21T13:38:40.424Z,8.47
2022-11-21T13:39:40.421Z,8.60
2022-11-21T13:40:40.414Z,8.69
2022-11-21T13:41:40.418Z,8.79
2022-11-21T13:42:40.369Z,8.73
2022-11-21T13:43:40.363Z,8.72
2022-11-21T13:44:40.354Z,8.69
2022-11-21T13:45:40.357Z,8.72
2022-11-21T13:46:40.325Z,8.69
2022-11-21T13:47:45.651Z,8.72
2022-11-21T13:48:41.293Z,8.79
2022-11-21T13:49:40.317Z,8.79
2022-11-21T13:50:40.280Z,8.72
2022-11-21T13:51:40.291Z,8.75
2022-11-21T13:52:40.236Z,8.78
2022-11-21T13:53:40.232Z,8.86